createdAt,value
2022-12-11T00:00:24.730Z,100.00
2022-12-11T00:03:15.630Z,100.00
2022-12-11T00:05:44.173Z,100.00
2022-12-11T00:08:11.433Z,100.00
2022-12-11T00:10:38.299Z,100.00
2022-12-11T00:13:04.640Z,100.00
2022-12-11T00:15:31.775Z,100.00
2022-12-11T00:17:58.001Z,99.83
2022-12-11T00:20:24.460Z,99.55
2022-12-11T00:22:50.623Z,98.77
2022-12-11T00:25:17.135Z,98.21
2022-12-11T00:27:45.275Z,98.12
2022-12-11T00:30:12.844Z,98.00
2022-12-11T00:32:39.079Z,97.14
2022-12-11T00:35:05.668Z,98.03
2022-12-11T00:37:31.890Z,97.71
2022-12-11T00:39:58.339Z,98.42
2022-12-11T00:42:24.462Z,97.21
2022-12-11T00:44:51.458Z,97.35
2022-12-11T00:47:17.548Z,96.59
2022-12-11T00:49:49.621Z,97.13
2022-12-11T00:52:17.079Z,97.22
2022-12-11T00:54:43.485Z,97.01
2022-12-11T00:57:09.543Z,96.17
2022-12-11T00:59:36.027Z,96.29
2022-12-11T01:02:02.141Z,96.82
2022-12-11T01:04:28.607Z,96.69
2022-12-11T01:06:54.677Z,96.15
2022-12-11T01:09:39.896Z,95.70
2022-12-11T01:12:06.123Z,95.13
2022-12-11T01:14:32.470Z,95.19
2022-12-11T01:16:58.567Z,95.49
2022-12-11T01:19:25.003Z,95.14
2022-12-11T01:21:51.093Z,94.84
2022-12-11T01:24:17.590Z,94.07
2022-12-11T01:26:43.915Z,93.56
2022-12-11T01:29:10.539Z,94.55
2022-12-11T01:31:37.782Z,94.17
2022-12-11T01:34:04.212Z,94.23
2022-12-11T01:36:30.312Z,94.45
2022-12-11T01:38:56.819Z,93.04
2022-12-11T01:41:23.029Z,93.81
2022-12-11T01:44:30.397Z,93.89
2022-12-11T01:46:56.483Z,93.83
2022-12-11T01:49:26.805Z,94.17
2022-12-11T01:51:59.880Z,93.86
2022-12-11T01:54:27.638Z,92.94
2022-12-11T01:56:57.178Z,93.75
2022-12-11T01:59:27.637Z,92.77
2022-12-11T02:02:02.483Z,93.50
2022-12-11T02:04:30.556Z,93.42
2022-12-11T02:06:56.743Z,93.80
2022-12-11T02:09:27.155Z,93.86
2022-12-11T02:12:21.409Z,93.92
2022-12-11T02:14:57.043Z,94.59
2022-12-11T02:17:37.989Z,94.90
2022-12-11T02:20:15.457Z,95.94
2022-12-11T02:23:03.497Z,96.38
2022-12-11T02:25:57.461Z,96.76
2022-12-11T02:28:33.238Z,96.62
2022-12-11T02:31:17.279Z,97.67
2022-12-11T02:34:09.437Z,97.03
2022-12-11T02:36:41.280Z,96.35
2022-12-11T02:39:11.738Z,96.59
2022-12-11T02:41:42.253Z,96.27
2022-12-11T02:44:11.606Z,94.67
2022-12-11T02:46:39.628Z,95.30
2022-12-11T02:49:07.644Z,94.73
2022-12-11T02:51:39.610Z,94.54
2022-12-11T02:54:11.562Z,94.34
2022-12-11T02:56:58.086Z,94.58
2022-12-11T02:59:32.146Z,94.19
2022-12-11T03:01:58.771Z,94.35
2022-12-11T03:04:24.968Z,93.54
2022-12-11T03:06:59.195Z,93.58
2022-12-11T03:09:27.704Z,93.86
2022-12-11T03:11:54.506Z,93.91
2022-12-11T03:14:20.622Z,93.89
2022-12-11T03:17:04.402Z,95.64
2022-12-11T03:19:36.318Z,96.19
2022-12-11T03:22:14.227Z,95.18
2022-12-11T03:25:04.134Z,93.76
2022-12-11T03:27:34.715Z,94.59
2022-12-11T03:30:13.792Z,94.12
2022-12-11T03:32:49.626Z,94.89
2022-12-11T03:35:31.271Z,94.61
2022-12-11T03:38:03.423Z,95.53
2022-12-11T03:40:32.467Z,94.52
2022-12-11T03:42:59.878Z,94.42
2022-12-11T03:45:29.013Z,94.92
2022-12-11T03:47:59.547Z,94.61
2022-12-11T03:50:30.295Z,94.47
2022-12-11T03:52:58.046Z,95.67
2022-12-11T03:55:25.501Z,95.82
2022-12-11T03:57:51.908Z,95.91
2022-12-11T04:00:19.592Z,95.72
2022-12-11T04:03:12.679Z,96.17
2022-12-11T04:05:41.338Z,96.77
2022-12-11T04:08:08.151Z,96.78
2022-12-11T04:10:34.263Z,97.07
2022-12-11T04:13:00.726Z,96.75
2022-12-11T04:15:26.821Z,96.33
2022-12-11T04:18:11.774Z,95.64
2022-12-11T04:20:56.602Z,96.10
2022-12-11T04:23:41.388Z,95.95
2022-12-11T04:26:14.059Z,96.75
2022-12-11T04:28:41.798Z,95.97
2022-12-11T04:31:13.393Z,94.86
2022-12-11T04:33:39.890Z,95.96
2022-12-11T04:36:07.195Z,96.78
2022-12-11T04:38:33.723Z,96.04
2022-12-11T04:41:01.605Z,96.57
2022-12-11T04:43:28.594Z,95.08
2022-12-11T04:46:06.652Z,95.81
2022-12-11T04:48:33.203Z,96.26
2022-12-11T04:50:59.433Z,96.51
2022-12-11T04:53:26.483Z,95.13
2022-12-11T04:55:52.735Z,95.89
2022-12-11T04:58:19.179Z,95.41
2022-12-11T05:00:45.262Z,96.50
2022-12-11T05:03:11.770Z,95.67
2022-12-11T05:05:38.008Z,97.34
2022-12-11T05:08:05.103Z,96.40
2022-12-11T05:10:31.730Z,96.30
2022-12-11T05:12:58.195Z,96.46
2022-12-11T05:15:24.488Z,94.48
2022-12-11T05:17:50.976Z,95.17
2022-12-11T05:20:17.783Z,94.72
2022-12-11T05:22:44.287Z,95.10
2022-12-11T05:25:10.904Z,95.66
2022-12-11T05:27:37.682Z,95.52
2022-12-11T05:30:04.764Z,94.24
2022-12-11T05:32:31.376Z,94.91
2022-12-11T05:34:57.622Z,94.79
2022-12-11T05:37:24.397Z,95.79
2022-12-11T05:39:50.632Z,96.39
2022-12-11T05:42:17.543Z,95.38
2022-12-11T05:44:43.887Z,95.24
2022-12-11T05:47:10.357Z,94.65
2022-12-11T05:49:36.765Z,94.97
2022-12-11T05:52:03.238Z,95.15
2022-12-11T05:54:29.427Z,95.15
2022-12-11T05:56:56.224Z,95.88
2022-12-11T05:59:22.355Z,94.59
2022-12-11T06:01:48.981Z,95.04
2022-12-11T06:04:15.387Z,94.12
2022-12-11T06:06:43.287Z,95.48
2022-12-11T06:09:14.075Z,94.30
2022-12-11T06:11:40.876Z,94.76
2022-12-11T06:14:07.203Z,94.65
2022-12-11T06:16:33.965Z,94.94
2022-12-11T06:19:00.561Z,95.00
2022-12-11T06:21:30.325Z,94.68
2022-12-11T06:23:58.995Z,94.75
2022-12-11T06:26:26.890Z,95.13
2022-12-11T06:28:53.710Z,94.74
2022-12-11T06:31:20.714Z,94.69
2022-12-11T06:33:47.250Z,93.88
2022-12-11T06:36:17.355Z,94.17
2022-12-11T06:38:44.344Z,94.18
2022-12-11T06:41:11.691Z,93.76
2022-12-11T06:43:39.636Z,94.50
2022-12-11T06:46:09.195Z,94.06
2022-12-11T06:48:35.844Z,94.49
2022-12-11T06:51:07.601Z,93.36
2022-12-11T06:53:33.885Z,93.17
2022-12-11T06:56:09.476Z,94.05
2022-12-11T06:58:37.351Z,92.90
2022-12-11T07:01:11.694Z,93.37
2022-12-11T07:03:37.835Z,93.51
2022-12-11T07:06:04.512Z,93.91
2022-12-11T07:08:31.326Z,94.05
2022-12-11T07:11:06.093Z,94.30
2022-12-11T07:13:33.072Z,94.76
2022-12-11T07:16:01.159Z,94.54
2022-12-11T07:18:28.216Z,94.39
2022-12-11T07:20:57.564Z,95.22
2022-12-11T07:23:23.858Z,95.25
2022-12-11T07:25:50.294Z,94.42
2022-12-11T07:28:16.892Z,95.62
2022-12-11T07:30:43.427Z,94.86
2022-12-11T07:33:09.668Z,95.28
2022-12-11T07:35:36.168Z,94.96
2022-12-11T07:38:02.611Z,94.63
2022-12-11T07:40:29.117Z,95.34
2022-12-11T07:42:55.566Z,95.99
2022-12-11T07:45:22.281Z,96.14
2022-12-11T07:47:48.694Z,95.73
2022-12-11T07:50:15.407Z,95.78
2022-12-11T07:52:41.766Z,94.95
2022-12-11T07:55:09.126Z,94.91
2022-12-11T07:57:35.882Z,94.64
2022-12-11T08:00:04.431Z,95.48
2022-12-11T08:02:38.889Z,95.31
2022-12-11T08:05:05.963Z,95.29
2022-12-11T08:07:34.659Z,94.84
2022-12-11T08:10:01.768Z,95.50
2022-12-11T08:12:27.928Z,95.83
2022-12-11T08:14:54.337Z,95.45
2022-12-11T08:17:23.362Z,95.26
2022-12-11T08:19:53.873Z,95.10
2022-12-11T08:22:20.297Z,94.29
2022-12-11T08:24:46.951Z,94.56
2022-12-11T08:27:13.207Z,94.48
2022-12-11T08:29:39.867Z,94.91
2022-12-11T08:32:11.899Z,93.89
2022-12-11T08:34:40.032Z,94.77
2022-12-11T08:37:06.695Z,95.04
2022-12-11T08:39:33.410Z,95.40
2022-12-11T08:41:59.915Z,95.45
2022-12-11T08:44:27.856Z,94.89
2022-12-11T08:46:54.205Z,95.13
2022-12-11T08:49:20.875Z,94.95
2022-12-11T08:51:47.651Z,95.17
2022-12-11T08:54:14.408Z,95.73
2022-12-11T08:56:40.898Z,95.48
2022-12-11T08:59:07.706Z,95.31
2022-12-11T09:01:34.077Z,95.49
2022-12-11T09:04:00.583Z,94.74
2022-12-11T09:06:28.883Z,94.25
2022-12-11T09:08:58.929Z,94.82
2022-12-11T09:11:28.358Z,93.65
2022-12-11T09:13:55.236Z,93.43
2022-12-11T09:16:24.341Z,93.51
2022-12-11T09:18:54.443Z,93.06
2022-12-11T09:21:24.366Z,93.12
2022-12-11T09:23:56.741Z,92.75
2022-12-11T09:26:24.207Z,92.97
2022-12-11T09:28:52.583Z,92.16
2022-12-11T09:31:31.546Z,92.07
2022-12-11T09:34:01.302Z,91.84
2022-12-11T09:36:28.245Z,91.49
2022-12-11T09:38:55.080Z,91.30
2022-12-11T09:41:21.257Z,91.28
2022-12-11T09:43:51.035Z,90.63
2022-12-11T09:46:21.566Z,89.77
2022-12-11T09:48:50.684Z,91.37
2022-12-11T09:51:52.376Z,90.75
2022-12-11T09:54:19.447Z,91.10
2022-12-11T09:56:58.291Z,91.02
2022-12-11T09:59:32.251Z,90.27
2022-12-11T10:02:16.760Z,91.04
2022-12-11T10:05:03.700Z,90.96
2022-12-11T10:07:38.023Z,91.78
2022-12-11T10:10:16.669Z,92.39
2022-12-11T10:13:05.974Z,89.53
2022-12-11T10:15:32.730Z,89.87
2022-12-11T10:18:04.665Z,89.89
2022-12-11T10:20:38.525Z,90.61
2022-12-11T10:23:07.461Z,90.38
2022-12-11T10:25:44.410Z,90.44
2022-12-11T10:28:13.567Z,90.17
2022-12-11T10:31:09.378Z,90.30
2022-12-11T10:33:47.593Z,91.12
2022-12-11T10:36:19.964Z,90.36
2022-12-11T10:38:46.891Z,89.08
2022-12-11T10:41:20.665Z,88.15
2022-12-11T10:43:49.654Z,89.41
2022-12-11T10:46:25.489Z,87.91
2022-12-11T10:48:57.589Z,88.73
2022-12-11T10:51:36.876Z,88.52
2022-12-11T10:54:15.899Z,88.73
2022-12-11T10:56:46.508Z,88.98
2022-12-11T10:59:28.549Z,88.69
2022-12-11T11:01:56.612Z,88.53
2022-12-11T11:04:41.582Z,89.39
2022-12-11T11:07:20.436Z,89.69
2022-12-11T11:09:47.984Z,89.29
2022-12-11T11:12:27.102Z,89.85
2022-12-11T11:15:06.543Z,90.41
2022-12-11T11:17:51.283Z,91.09
2022-12-11T11:20:25.023Z,90.84
2022-12-11T11:22:57.877Z,91.39
2022-12-11T11:25:26.853Z,92.11
2022-12-11T11:28:17.267Z,92.08
2022-12-11T11:31:00.796Z,92.89
2022-12-11T11:33:28.691Z,91.36
2022-12-11T11:36:01.789Z,92.75
2022-12-11T11:38:34.902Z,92.79
2022-12-11T11:41:19.093Z,92.41
2022-12-11T11:43:52.235Z,91.70
2022-12-11T11:46:24.695Z,91.62
2022-12-11T11:49:10.095Z,92.23
2022-12-11T11:51:45.041Z,92.95
2022-12-11T11:54:36.046Z,92.05
2022-12-11T11:57:26.666Z,91.49
2022-12-11T11:59:57.510Z,92.82
2022-12-11T12:02:24.014Z,91.30
2022-12-11T12:04:51.509Z,91.59
2022-12-11T12:07:30.154Z,91.51
2022-12-11T12:10:10.206Z,92.38
2022-12-11T12:12:54.457Z,93.20
2022-12-11T12:15:43.186Z,93.07
2022-12-11T12:18:28.124Z,92.85
2022-12-11T12:21:08.254Z,91.20
2022-12-11T12:23:53.512Z,91.73
2022-12-11T12:26:32.850Z,91.92
2022-12-11T12:29:14.250Z,91.42
2022-12-11T12:31:59.472Z,91.27
2022-12-11T12:35:04.282Z,91.54
2022-12-11T12:38:16.480Z,92.52
2022-12-11T12:41:02.057Z,91.92
2022-12-11T12:44:00.016Z,91.64
2022-12-11T12:47:05.112Z,92.47
2022-12-11T12:49:41.161Z,91.92
2022-12-11T12:52:18.638Z,92.29
2022-12-11T12:55:08.083Z,94.06
2022-12-11T12:57:35.818Z,94.54
2022-12-11T13:00:12.850Z,93.81
2022-12-11T13:02:50.353Z,95.09
2022-12-11T13:05:32.861Z,95.00
2022-12-11T13:08:02.178Z,93.88
2022-12-11T13:10:35.508Z,93.35
2022-12-11T13:13:04.611Z,94.53
2022-12-11T13:15:34.045Z,93.20
2022-12-11T13:18:06.340Z,93.47
2022-12-11T13:20:33.998Z,93.31
2022-12-11T13:23:06.319Z,93.44
2022-12-11T13:25:47.525Z,92.24
2022-12-11T13:28:21.753Z,92.14
2022-12-11T13:30:57.451Z,91.49
2022-12-11T13:33:23.931Z,91.68
2022-12-11T13:36:25.003Z,90.80
2022-12-11T13:38:57.376Z,90.37
2022-12-11T13:41:24.686Z,89.98
2022-12-11T13:43:53.295Z,90.67
2022-12-11T13:46:34.147Z,89.50
2022-12-11T13:49:06.392Z,89.85
2022-12-11T13:51:37.291Z,90.67
2022-12-11T13:54:06.636Z,90.63
2022-12-11T13:56:33.705Z,91.21
2022-12-11T13:59:00.464Z,91.59
2022-12-11T14:01:31.841Z,91.82
2022-12-11T14:04:06.133Z,91.71
2022-12-11T14:06:34.338Z,91.59
2022-12-11T14:09:03.879Z,92.01
2022-12-11T14:11:41.893Z,92.25
2022-12-11T14:14:36.739Z,92.38
2022-12-11T14:17:03.897Z,91.06
2022-12-11T14:19:30.347Z,91.14
2022-12-11T14:22:02.330Z,91.67
2022-12-11T14:24:30.556Z,92.68
2022-12-11T14:26:57.491Z,93.08
2022-12-11T14:29:32.059Z,93.01
2022-12-11T14:32:03.961Z,93.72
2022-12-11T14:34:42.877Z,94.64
2022-12-11T14:37:13.875Z,93.41
2022-12-11T14:39:47.380Z,93.75
2022-12-11T14:42:21.366Z,94.05
2022-12-11T14:44:53.102Z,94.84
2022-12-11T14:47:26.246Z,94.11
2022-12-11T14:50:01.209Z,94.15
2022-12-11T14:52:36.618Z,94.33
2022-12-11T14:55:12.341Z,94.91
2022-12-11T14:57:42.570Z,95.25
2022-12-11T15:00:24.262Z,95.77
2022-12-11T15:03:04.196Z,95.24
2022-12-11T15:05:35.732Z,95.84
2022-12-11T15:08:12.089Z,96.13
2022-12-11T15:11:01.927Z,96.85
2022-12-11T15:13:29.037Z,97.03
2022-12-11T15:15:58.024Z,98.07
2022-12-11T15:18:35.338Z,97.01
2022-12-11T15:21:08.713Z,95.81
2022-12-11T15:23:54.076Z,96.23
2022-12-11T15:26:31.465Z,96.13
2022-12-11T15:29:00.439Z,95.82
2022-12-11T15:31:32.895Z,96.57
2022-12-11T15:34:02.021Z,96.69
2022-12-11T15:36:35.011Z,97.51
2022-12-11T15:39:06.325Z,96.60
2022-12-11T15:41:34.095Z,96.30
2022-12-11T15:44:03.502Z,96.77
2022-12-11T15:46:34.276Z,97.41
2022-12-11T15:49:00.914Z,97.75
2022-12-11T15:51:27.675Z,97.99
2022-12-11T15:53:54.479Z,99.01
2022-12-11T15:56:20.684Z,98.90
2022-12-11T15:58:48.505Z,99.01
2022-12-11T16:01:14.906Z,99.89
2022-12-11T16:03:41.494Z,100.00
2022-12-11T16:06:11.851Z,100.00
2022-12-11T16:08:38.534Z,100.00
2022-12-11T16:11:05.301Z,100.00
2022-12-11T16:13:31.879Z,100.00
2022-12-11T16:15:58.548Z,100.00
2022-12-11T16:18:25.917Z,100.00
2022-12-11T16:20:52.407Z,100.00
2022-12-11T16:23:19.713Z,100.00
2022-12-11T16:25:46.722Z,100.00
2022-12-11T16:28:17.395Z,100.00
2022-12-11T16:30:47.149Z,100.00
2022-12-11T16:33:14.142Z,100.00
2022-12-11T16:35:42.637Z,100.00
2022-12-11T16:38:11.017Z,100.00
2022-12-11T16:40:38.341Z,100.00
2022-12-11T16:43:05.233Z,100.00
2022-12-11T16:45:32.372Z,100.00
2022-12-11T16:48:03.439Z,100.00
2022-12-11T16:50:39.453Z,100.00
2022-12-11T16:53:06.231Z,100.00
2022-12-11T16:55:33.165Z,100.00
2022-12-11T16:57:59.911Z,100.00
2022-12-11T17:00:26.259Z,100.00
2022-12-11T17:02:53.265Z,100.00
2022-12-11T17:05:20.185Z,100.00
2022-12-11T17:07:46.974Z,100.00
2022-12-11T17:10:13.507Z,100.00
2022-12-11T17:12:40.377Z,100.00
2022-12-11T17:15:08.047Z,100.00
2022-12-11T17:17:34.857Z,100.00
2022-12-11T17:20:01.257Z,100.00
2022-12-11T17:22:46.461Z,100.00
2022-12-11T17:25:16.024Z,100.00
2022-12-11T17:27:42.782Z,100.00
2022-12-11T17:30:09.806Z,100.00
2022-12-11T17:32:36.686Z,100.00
2022-12-11T17:35:03.414Z,100.00
2022-12-11T17:37:30.074Z,100.00
2022-12-11T17:39:56.445Z,100.00
2022-12-11T17:42:23.177Z,100.00
2022-12-11T17:44:49.764Z,100.00
2022-12-11T17:47:18.127Z,100.00
2022-12-11T17:49:44.563Z,100.00
2022-12-11T17:52:11.403Z,100.00
2022-12-11T17:54:38.571Z,100.00
2022-12-11T17:57:06.213Z,100.00
2022-12-11T17:59:32.778Z,100.00
2022-12-11T18:01:59.454Z,100.00
2022-12-11T18:04:25.856Z,100.00
2022-12-11T18:06:52.720Z,100.00
2022-12-11T18:09:19.001Z,100.00
2022-12-11T18:11:45.587Z,100.00
2022-12-11T18:14:16.922Z,100.00
2022-12-11T18:16:44.319Z,100.00
2022-12-11T18:19:10.908Z,100.00
2022-12-11T18:21:42.026Z,100.00
2022-12-11T18:24:09.399Z,100.00
2022-12-11T18:26:42.180Z,100.00
2022-12-11T18:29:08.706Z,100.00
2022-12-11T18:31:40.491Z,100.00
2022-12-11T18:34:09.949Z,100.00
2022-12-11T18:36:36.781Z,100.00
2022-12-11T18:39:03.368Z,100.00
2022-12-11T18:41:30.110Z,100.00
2022-12-11T18:43:56.642Z,100.00
2022-12-11T18:46:23.303Z,100.00
2022-12-11T18:48:50.180Z,100.00
2022-12-11T18:51:23.137Z,100.00
2022-12-11T18:53:51.014Z,100.00
2022-12-11T18:56:19.110Z,100.00
2022-12-11T18:58:46.815Z,100.00
2022-12-11T19:01:27.328Z,100.00
2022-12-11T19:04:03.504Z,100.00
2022-12-11T19:06:32.618Z,100.00
2022-12-11T19:08:59.563Z,100.00
2022-12-11T19:11:28.380Z,100.00
2022-12-11T19:13:58.169Z,100.00
2022-12-11T19:16:32.956Z,100.00
2022-12-11T19:19:01.859Z,100.00
2022-12-11T19:21:30.217Z,100.00
2022-12-11T19:23:57.474Z,100.00
2022-12-11T19:26:24.315Z,100.00
2022-12-11T19:28:52.111Z,100.00
2022-12-11T19:31:22.484Z,100.00
2022-12-11T19:33:49.549Z,100.00
2022-12-11T19:36:20.375Z,100.00
2022-12-11T19:38:47.817Z,100.00
2022-12-11T19:41:20.602Z,100.00
2022-12-11T19:43:47.530Z,100.00
2022-12-11T19:46:15.178Z,100.00
2022-12-11T19:48:42.165Z,100.00
2022-12-11T19:51:12.817Z,100.00
2022-12-11T19:53:40.418Z,100.00
2022-12-11T19:56:08.073Z,100.00
2022-12-11T19:58:34.728Z,100.00
2022-12-11T20:01:02.297Z,100.00
2022-12-11T20:03:30.383Z,100.00
2022-12-11T20:06:00.928Z,100.00
2022-12-11T20:08:44.085Z,100.00
2022-12-11T20:11:17.613Z,100.00
2022-12-11T20:13:47.416Z,100.00
2022-12-11T20:16:16.947Z,100.00
2022-12-11T20:18:44.108Z,100.00
2022-12-11T20:21:15.891Z,100.00
2022-12-11T20:23:42.724Z,100.00
2022-12-11T20:26:15.811Z,100.00
2022-12-11T20:28:50.466Z,100.00
2022-12-11T20:31:22.221Z,100.00
2022-12-11T20:33:51.300Z,100.00
2022-12-11T20:36:19.788Z,100.00
2022-12-11T20:38:47.361Z,100.00
2022-12-11T20:41:18.868Z,100.00
2022-12-11T20:43:46.336Z,100.00
2022-12-11T20:46:15.086Z,100.00
2022-12-11T20:48:43.620Z,100.00
2022-12-11T20:51:12.314Z,100.00
2022-12-11T20:53:39.584Z,100.00
2022-12-11T20:56:17.344Z,100.00
2022-12-11T20:58:44.758Z,100.00
2022-12-11T21:01:16.312Z,100.00
2022-12-11T21:03:43.005Z,100.00
2022-12-11T21:06:23.033Z,100.00
2022-12-11T21:08:49.675Z,100.00
2022-12-11T21:11:17.797Z,100.00
2022-12-11T21:13:44.556Z,100.00
2022-12-11T21:16:11.368Z,100.00
2022-12-11T21:18:39.159Z,100.00
2022-12-11T21:21:06.042Z,100.00
2022-12-11T21:23:33.189Z,100.00
2022-12-11T21:26:01.360Z,100.00
2022-12-11T21:28:33.533Z,100.00
2022-12-11T21:31:05.320Z,100.00
2022-12-11T21:33:32.506Z,100.00
2022-12-11T21:36:03.124Z,100.00
2022-12-11T21:38:29.872Z,100.00
2022-12-11T21:40:56.565Z,100.00
2022-12-11T21:43:24.453Z,100.00
2022-12-11T21:46:06.729Z,100.00
2022-12-11T21:48:33.695Z,100.00
2022-12-11T21:51:17.982Z,100.00
2022-12-11T21:53:45.072Z,100.00
2022-12-11T21:56:15.222Z,100.00
2022-12-11T21:58:42.320Z,100.00
2022-12-11T22:01:19.577Z,100.00
2022-12-11T22:03:47.396Z,100.00
2022-12-11T22:06:13.678Z,100.00
2022-12-11T22:08:40.424Z,100.00
2022-12-11T22:11:07.502Z,100.00
2022-12-11T22:13:34.761Z,100.00
2022-12-11T22:16:01.161Z,100.00
2022-12-11T22:18:27.777Z,100.00
2022-12-11T22:20:54.341Z,100.00
2022-12-11T22:23:21.391Z,100.00
2022-12-11T22:25:48.342Z,100.00
2022-12-11T22:28:15.155Z,100.00
2022-12-11T22:30:42.055Z,100.00
2022-12-11T22:33:09.022Z,100.00
2022-12-11T22:35:35.411Z,100.00
2022-12-11T22:38:01.827Z,100.00
2022-12-11T22:40:30.009Z,100.00
2022-12-11T22:42:56.484Z,100.00
2022-12-11T22:45:22.699Z,100.00
2022-12-11T22:47:49.331Z,100.00
2022-12-11T22:50:17.244Z,100.00
2022-12-11T22:52:46.141Z,100.00
2022-12-11T22:55:12.694Z,100.00
2022-12-11T22:57:39.263Z,100.00
2022-12-11T23:00:08.377Z,100.00
2022-12-11T23:02:35.101Z,100.00
2022-12-11T23:05:01.830Z,100.00
2022-12-11T23:07:28.329Z,100.00
2022-12-11T23:09:55.162Z,100.00
2022-12-11T23:12:23.025Z,100.00
2022-12-11T23:14:50.350Z,100.00
2022-12-11T23:17:16.745Z,100.00
2022-12-11T23:19:45.233Z,100.00
2022-12-11T23:22:12.452Z,100.00
2022-12-11T23:24:38.648Z,100.00
2022-12-11T23:27:05.093Z,100.00
2022-12-11T23:29:31.235Z,100.00
2022-12-11T23:31:57.641Z,100.00
2022-12-11T23:34:23.742Z,100.00
2022-12-11T23:36:50.219Z,100.00
2022-12-11T23:39:16.464Z,100.00
2022-12-11T23:41:43.142Z,100.00
2022-12-11T23:44:09.942Z,100.00
2022-12-11T23:46:36.493Z,100.00
2022-12-11T23:49:03.588Z,100.00
2022-12-11T23:51:30.333Z,100.00
2022-12-11T23:53:56.442Z,100.00
2022-12-11T23:56:25.257Z,100.00
2022-12-11T23:58:52.751Z,100.00
